Time;durP1;ratioP1;P1;durP2;ratioP2;P2;SDS_P1;SDS_P2;PMS_P1;PMS_P2;Temp;Humidity;BMP_temperature;BMP_pressure;BME280_temperature;BME280_humidity;BME280_pressure;Samples;Min_cycle;Max_cycle;Signal;HPM_P1;HPM_P2
2023/12/27 00:00:49;;;;;;;15.23;2.45;;;6.10;99.90;;;;;;4988685;28;20040;-75
2023/12/27 00:03:14;;;;;;;;;;;6.10;99.90;;;;;;4993660;28;20041;-75
2023/12/27 00:05:40;;;;;;;10.40;1.27;;;6.10;99.90;;;;;;4988567;28;19993;-75
2023/12/27 00:08:08;;;;;;;15.32;2.03;;;6.00;99.90;;;;;;4990008;28;20180;-74
2023/12/27 00:10:34;;;;;;;;;;;6.00;99.90;;;;;;4973127;28;20041;-74
2023/12/27 00:13:02;;;;;;;10.18;1.60;;;6.10;99.90;;;;;;4988442;28;19975;-75
2023/12/27 00:15:27;;;;;;;;;;;6.10;99.90;;;;;;4994151;28;20029;-74
2023/12/27 00:17:53;;;;;;;13.60;1.35;;;6.00;99.90;;;;;;4987825;28;20264;-74
2023/12/27 00:20:21;;;;;;;15.15;1.85;;;6.00;99.90;;;;;;4990539;28;20061;-75
2023/12/27 00:22:46;;;;;;;;;;;6.00;99.90;;;;;;4989411;28;20095;-73
2023/12/27 00:25:14;;;;;;;12.15;1.88;;;6.00;99.90;;;;;;4990385;28;19921;-74
2023/12/27 00:27:40;;;;;;;;;;;6.00;99.90;;;;;;4995587;28;20041;-75
2023/12/27 00:30:06;;;;;;;14.95;1.65;;;5.90;99.90;;;;;;4991018;28;20393;-74
2023/12/27 00:32:32;;;;;;;16.25;1.77;;;5.90;99.90;;;;;;4988117;28;20033;-74
2023/12/27 00:34:57;;;;;;;17.98;2.17;;;5.90;99.90;;;;;;4991173;28;20151;-75
2023/12/27 00:37:26;;;;;;;8.70;1.50;;;5.90;99.90;;;;;;4972910;28;20041;-75
2023/12/27 00:39:51;;;;;;;11.65;1.70;;;6.00;99.90;;;;;;4992212;28;20569;-75
2023/12/27 00:42:21;;;;;;;13.93;1.42;;;5.90;99.90;;;;;;4988098;28;20040;-75
2023/12/27 00:44:48;;;;;;;11.07;1.58;;;5.90;99.90;;;;;;4991256;28;20044;-75
2023/12/27 00:47:16;;;;;;;12.40;1.50;;;5.80;99.90;;;;;;5034372;22;20510;-75
2023/12/27 00:49:42;;;;;;;19.67;1.65;;;5.90;99.90;;;;;;5038485;28;20041;-75
2023/12/27 00:52:07;;;;;;;12.45;1.80;;;5.90;99.90;;;;;;5030170;28;20043;-75
2023/12/27 00:54:33;;;;;;;13.55;1.52;;;5.80;99.90;;;;;;5019828;28;20533;-75
2023/12/27 00:56:59;;;;;;;9.13;1.38;;;5.80;99.90;;;;;;5031267;28;20759;-75
2023/12/27 00:59:25;;;;;;;12.88;1.88;;;5.80;99.90;;;;;;5019031;28;20041;-75
2023/12/27 01:01:52;;;;;;;9.90;1.67;;;5.80;99.90;;;;;;5016434;28;20037;-75
2023/12/27 01:04:18;;;;;;;11.88;1.40;;;5.80;99.90;;;;;;5020747;28;20029;-75
2023/12/27 01:06:43;;;;;;;12.02;1.85;;;5.80;99.90;;;;;;5016781;28;20125;-75
2023/12/27 01:09:12;;;;;;;14.30;1.50;;;5.90;99.90;;;;;;5018703;28;20044;-75
2023/12/27 01:11:37;;;;;;;19.13;1.80;;;5.80;99.90;;;;;;5017762;28;20042;-75
2023/12/27 01:14:03;;;;;;;12.48;1.90;;;5.80;99.90;;;;;;5017901;28;20037;-75
2023/12/27 01:16:29;;;;;;;10.57;1.90;;;5.80;99.90;;;;;;5016283;28;20036;-75
2023/12/27 01:18:57;;;;;;;11.85;1.45;;;5.70;99.90;;;;;;5018714;28;20036;-75
2023/12/27 01:21:25;;;;;;;11.00;1.40;;;5.70;99.90;;;;;;5014985;28;21063;-75
2023/12/27 01:23:51;;;;;;;;;;;5.70;99.90;;;;;;5019627;28;20041;-75
2023/12/27 01:26:17;;;;;;;13.55;1.40;;;5.90;99.90;;;;;;5018527;28;19954;-75
2023/12/27 01:28:45;;;;;;;10.43;1.63;;;5.70;99.90;;;;;;5021539;28;20037;-75
2023/12/27 01:31:10;;;;;;;15.77;2.08;;;5.70;99.90;;;;;;5016928;28;20144;-75
2023/12/27 01:33:38;;;;;;;13.60;2.05;;;5.60;99.90;;;;;;5024573;28;20028;-75
2023/12/27 01:36:10;;;;;;;9.95;1.60;;;5.60;99.90;;;;;;5022341;28;20036;-75
2023/12/27 01:38:35;;;;;;;13.15;1.35;;;5.60;99.90;;;;;;5022977;28;20554;-74
2023/12/27 01:41:05;;;;;;;19.20;1.65;;;5.70;99.90;;;;;;5020675;28;20067;-75
2023/12/27 01:43:31;;;;;;;9.48;1.48;;;5.70;99.90;;;;;;5019895;28;20060;-75
2023/12/27 01:45:59;;;;;;;13.40;1.60;;;5.60;99.90;;;;;;5025380;28;20127;-75
2023/12/27 01:48:24;;;;;;;;;;;5.60;99.90;;;;;;5022122;28;20142;-75
2023/12/27 01:50:52;;;;;;;6.43;1.67;;;5.60;99.90;;;;;;5022007;28;19916;-75
2023/12/27 01:53:25;;;;;;;15.88;1.65;;;5.60;99.90;;;;;;5021140;28;22206;-75
2023/12/27 01:55:51;;;;;;;10.88;1.60;;;5.60;99.90;;;;;;5021929;28;20529;-75
2023/12/27 01:58:17;;;;;;;8.15;1.30;;;5.60;99.90;;;;;;5020020;28;20604;-75
2023/12/27 02:00:47;;;;;;;13.73;2.22;;;5.60;99.90;;;;;;5020063;28;20067;-75
2023/12/27 02:03:15;;;;;;;7.60;1.23;;;5.50;99.90;;;;;;5018168;28;20196;-75
2023/12/27 02:05:41;;;;;;;;;;;5.60;99.90;;;;;;5022117;28;20151;-75
2023/12/27 02:08:12;;;;;;;9.32;1.88;;;5.50;99.90;;;;;;5018291;28;19916;-75
2023/12/27 02:10:38;;;;;;;8.02;1.50;;;5.50;99.90;;;;;;5021399;28;20032;-75
2023/12/27 02:13:05;;;;;;;9.52;1.45;;;5.50;99.90;;;;;;5018839;28;20081;-75
2023/12/27 02:15:33;;;;;;;12.70;1.35;;;5.50;99.90;;;;;;5021360;28;20075;-75
2023/12/27 02:18:01;;;;;;;11.95;1.65;;;5.40;99.90;;;;;;5018465;28;20111;-75
2023/12/27 02:20:29;;;;;;;14.30;2.08;;;5.40;99.90;;;;;;5022211;28;20199;-75
2023/12/27 02:22:57;;;;;;;6.70;1.52;;;5.40;99.90;;;;;;5021148;28;20037;-75
2023/12/27 02:25:23;;;;;;;10.70;1.30;;;5.40;99.90;;;;;;5021273;28;20037;-75
2023/12/27 02:27:49;;;;;;;11.15;1.17;;;5.40;99.90;;;;;;5020349;28;20037;-75
2023/12/27 02:30:19;;;;;;;8.98;1.58;;;5.30;99.90;;;;;;5020177;28;20071;-75
2023/12/27 02:32:46;;;;;;;13.98;1.30;;;5.20;99.90;;;;;;5017576;28;20025;-75
2023/12/27 02:35:12;;;;;;;10.73;1.25;;;5.20;99.90;;;;;;5023235;28;20817;-75
2023/12/27 02:37:37;;;;;;;7.80;1.50;;;5.20;99.90;;;;;;5018450;28;20033;-74
2023/12/27 02:40:03;;;;;;;6.85;1.50;;;5.10;99.90;;;;;;5019038;28;20443;-75
2023/12/27 02:42:32;;;;;;;13.07;1.40;;;5.10;99.90;;;;;;5020782;28;20033;-75
2023/12/27 02:44:57;;;;;;;8.77;1.83;;;5.00;99.90;;;;;;5018463;28;20033;-75
2023/12/27 02:47:25;;;;;;;6.85;1.25;;;5.00;99.90;;;;;;5024849;28;20049;-75
2023/12/27 02:49:51;;;;;;;10.13;1.30;;;4.90;99.90;;;;;;5018945;28;20071;-75
2023/12/27 02:52:19;;;;;;;10.20;1.80;;;4.90;99.90;;;;;;5016638;28;20041;-75
2023/12/27 02:54:45;;;;;;;7.63;1.02;;;4.80;99.90;;;;;;5018083;28;20036;-75
2023/12/27 02:57:10;;;;;;;12.98;1.23;;;4.70;99.90;;;;;;5017278;28;20033;-75
2023/12/27 02:59:36;;;;;;;13.25;1.40;;;4.60;99.90;;;;;;5018549;28;20037;-75
2023/12/27 03:02:04;;;;;;;8.25;1.50;;;4.60;99.90;;;;;;5017975;28;20083;-75
2023/12/27 03:04:29;;;;;;;6.13;1.02;;;4.50;99.90;;;;;;5019052;28;20640;-75
2023/12/27 03:06:55;;;;;;;7.13;1.60;;;4.50;99.90;;;;;;5015711;28;20041;-75
2023/12/27 03:09:20;;;;;;;4.03;1.27;;;4.40;99.90;;;;;;5019487;28;20054;-75
2023/12/27 03:11:46;;;;;;;8.77;1.33;;;4.40;99.90;;;;;;5016298;28;20122;-74
2023/12/27 03:14:11;;;;;;;6.80;1.55;;;4.40;99.90;;;;;;5017248;28;20043;-75
2023/12/27 03:16:39;;;;;;;8.25;1.83;;;4.30;99.90;;;;;;5023739;28;20032;-75
2023/12/27 03:19:05;;;;;;;;;;;4.30;99.90;;;;;;5018583;28;20124;-75
2023/12/27 03:21:33;;;;;;;11.90;1.42;;;4.20;99.90;;;;;;5018554;28;19981;-75
2023/12/27 03:23:58;;;;;;;13.27;1.65;;;4.20;99.90;;;;;;5018779;28;20029;-75
2023/12/27 03:26:24;;;;;;;6.07;1.55;;;4.10;99.90;;;;;;5016344;28;20037;-75
2023/12/27 03:28:49;;;;;;;12.32;1.30;;;4.10;99.90;;;;;;5018337;28;20028;-75
2023/12/27 03:31:15;;;;;;;7.22;1.15;;;4.00;99.90;;;;;;5016476;28;20080;-74
2023/12/27 03:33:40;;;;;;;7.50;1.40;;;4.00;99.90;;;;;;5020008;28;20025;-74
2023/12/27 03:36:06;;;;;;;12.10;1.40;;;3.90;99.90;;;;;;5017008;28;20640;-75
2023/12/27 03:38:32;;;;;;;8.20;1.73;;;4.00;99.90;;;;;;5017192;28;20037;-75
2023/12/27 03:40:57;;;;;;;16.70;1.45;;;3.90;99.90;;;;;;5016339;28;20031;-75
2023/12/27 03:43:23;;;;;;;14.65;1.35;;;3.90;99.90;;;;;;5017422;28;20627;-75
2023/12/27 03:45:50;;;;;;;10.45;1.40;;;3.80;99.90;;;;;;5017513;28;20472;-74
2023/12/27 03:48:16;;;;;;;6.60;1.45;;;3.70;99.90;;;;;;5017602;28;20028;-75
2023/12/27 03:50:44;;;;;;;11.93;1.50;;;3.70;99.90;;;;;;5019362;28;20145;-75
2023/12/27 03:53:11;;;;;;;9.07;1.33;;;3.80;99.90;;;;;;5017030;28;20056;-75
2023/12/27 03:55:37;;;;;;;10.02;1.33;;;3.80;99.90;;;;;;5019957;28;20037;-75
2023/12/27 03:58:05;;;;;;;5.55;1.45;;;3.80;99.90;;;;;;5016645;28;20473;-75
2023/12/27 04:00:31;;;;;;;3.40;0.80;;;3.70;99.90;;;;;;5018377;28;20029;-74
2023/12/27 04:02:59;;;;;;;12.27;1.20;;;3.70;99.90;;;;;;5016465;28;20538;-75
2023/12/27 04:05:24;;;;;;;;;;;3.70;99.90;;;;;;5020956;28;20487;-75
2023/12/27 04:07:50;;;;;;;4.00;1.08;;;3.70;99.90;;;;;;5016588;28;19917;-75
2023/12/27 04:10:18;;;;;;;7.28;1.27;;;3.60;99.90;;;;;;5019549;28;20059;-75
2023/12/27 04:12:43;;;;;;;;;;;3.50;99.90;;;;;;5016151;28;20186;-75
2023/12/27 04:15:11;;;;;;;8.77;1.00;;;3.60;99.90;;;;;;5017817;28;21134;-74
2023/12/27 04:17:39;;;;;;;7.35;1.20;;;3.50;99.90;;;;;;5017788;28;20029;-74
2023/12/27 04:20:05;;;;;;;;;;;3.40;99.90;;;;;;5020891;28;20032;-74
2023/12/27 04:22:33;;;;;;;4.85;1.30;;;3.50;99.90;;;;;;5015494;28;19920;-74
2023/12/27 04:24:58;;;;;;;;;;;3.40;99.90;;;;;;5018985;28;20033;-74
2023/12/27 04:27:24;;;;;;;4.45;0.85;;;3.50;99.90;;;;;;5015378;28;19975;-72
2023/12/27 04:29:49;;;;;;;7.68;1.08;;;3.30;99.90;;;;;;5016934;28;20114;-75
2023/12/27 04:32:15;;;;;;;9.20;1.58;;;3.30;99.90;;;;;;5015944;28;20033;-74
2023/12/27 04:34:41;;;;;;;5.60;0.98;;;3.20;99.90;;;;;;5024011;28;20036;-74
2023/12/27 04:37:06;;;;;;;9.27;1.88;;;3.20;99.90;;;;;;5018129;28;20044;-74
2023/12/27 04:39:35;;;;;;;8.32;1.05;;;3.20;99.90;;;;;;5019718;28;20179;-75
2023/12/27 04:42:00;;;;;;;5.85;1.30;;;3.10;99.90;;;;;;5017158;28;20032;-75
2023/12/27 04:44:26;;;;;;;10.80;1.92;;;3.20;99.90;;;;;;5017722;28;20427;-74
2023/12/27 04:46:52;;;;;;;12.25;1.55;;;3.20;99.90;;;;;;5016085;28;20037;-74
2023/12/27 04:49:17;;;;;;;11.23;1.90;;;3.20;99.90;;;;;;5023975;28;20079;-74
2023/12/27 04:51:45;;;;;;;12.48;1.17;;;3.10;99.90;;;;;;5014370;28;20036;-75
2023/12/27 04:54:10;;;;;;;7.97;2.40;;;3.10;99.90;;;;;;5018250;28;20032;-75
2023/12/27 04:56:38;;;;;;;7.93;1.70;;;3.10;99.90;;;;;;5014787;28;20469;-75
2023/12/27 04:59:03;;;;;;;9.40;1.17;;;3.10;99.90;;;;;;5021102;28;20521;-74
2023/12/27 05:01:29;;;;;;;7.88;2.10;;;3.10;99.90;;;;;;5028314;22;20061;-68
2023/12/27 05:03:54;;;;;;;5.97;0.80;;;3.10;99.90;;;;;;5018275;28;20755;-70
2023/12/27 05:06:22;;;;;;;16.98;2.47;;;3.20;99.90;;;;;;5017803;28;20039;-70
2023/12/27 05:08:48;;;;;;;;;;;3.20;99.90;;;;;;5019825;28;20124;-70
2023/12/27 05:11:18;;;;;;;5.03;1.10;;;3.20;99.90;;;;;;5019539;28;19916;-69
2023/12/27 05:13:43;;;;;;;8.68;1.17;;;3.30;99.90;;;;;;5019019;28;20036;-70
2023/12/27 05:16:14;;;;;;;14.10;1.15;;;3.30;99.90;;;;;;5019027;28;20212;-70
2023/12/27 05:18:41;;;;;;;8.02;1.42;;;3.30;99.90;;;;;;5020146;28;20029;-69
2023/12/27 05:21:08;;;;;;;6.40;1.55;;;3.30;99.90;;;;;;5021529;28;20103;-70
2023/12/27 05:23:36;;;;;;;15.15;1.88;;;3.30;99.90;;;;;;5020596;28;20120;-70
2023/12/27 05:26:03;;;;;;;9.88;1.65;;;3.30;99.90;;;;;;5001767;28;20021;-69
2023/12/27 05:28:28;;;;;;;8.73;1.25;;;3.40;99.90;;;;;;5018404;28;20060;-70
2023/12/27 05:30:54;;;;;;;13.57;1.65;;;3.40;99.90;;;;;;5013689;28;20037;-70
2023/12/27 05:33:20;;;;;;;9.95;1.67;;;3.50;99.90;;;;;;5002144;28;20091;-70
2023/12/27 05:35:46;;;;;;;5.88;1.67;;;3.60;99.90;;;;;;5019879;28;20025;-70
2023/12/27 05:38:14;;;;;;;13.05;1.45;;;3.60;99.90;;;;;;5017725;28;20071;-70
2023/12/27 05:40:39;;;;;;;9.73;1.73;;;3.60;99.90;;;;;;5001888;28;20118;-69
2023/12/27 05:43:05;;;;;;;4.90;1.20;;;3.70;99.90;;;;;;5020774;28;21063;-70
2023/12/27 05:45:31;;;;;;;8.07;1.73;;;3.80;99.90;;;;;;5018705;28;20033;-70
2023/12/27 05:47:56;;;;;;;11.00;1.63;;;3.90;99.90;;;;;;5018939;28;20057;-70
2023/12/27 05:50:22;;;;;;;8.15;1.95;;;4.00;99.90;;;;;;5018871;28;20169;-69
2023/12/27 05:52:51;;;;;;;10.70;1.90;;;4.00;99.90;;;;;;5016598;28;20037;-70
2023/12/27 05:55:19;;;;;;;3.97;1.48;;;4.10;99.90;;;;;;5018492;28;20029;-70
2023/12/27 05:57:44;;;;;;;7.45;1.42;;;4.10;99.90;;;;;;5000262;28;20194;-70
2023/12/27 06:00:15;;;;;;;15.27;2.08;;;4.20;99.90;;;;;;5020831;28;20729;-70
2023/12/27 06:02:41;;;;;;;24.75;2.03;;;4.20;99.90;;;;;;5017702;28;20126;-70
2023/12/27 06:05:09;;;;;;;14.95;1.42;;;4.30;99.90;;;;;;5024950;28;20033;-70
2023/12/27 06:07:35;;;;;;;13.98;2.03;;;4.40;99.90;;;;;;5017840;28;20079;-70
2023/12/27 06:10:01;;;;;;;10.95;1.63;;;4.40;99.90;;;;;;5017112;28;20048;-70
2023/12/27 06:12:27;;;;;;;11.60;1.67;;;4.50;99.90;;;;;;5017658;28;20106;-70
2023/12/27 06:14:53;;;;;;;14.35;2.08;;;4.40;99.90;;;;;;5016746;28;20882;-70
2023/12/27 06:17:21;;;;;;;6.00;1.42;;;4.50;99.90;;;;;;5017244;28;20114;-70
2023/12/27 06:19:46;;;;;;;;;;;4.60;99.90;;;;;;5020149;28;20033;-70
2023/12/27 06:22:12;;;;;;;7.45;2.05;;;4.60;99.90;;;;;;5015578;28;20710;-70
2023/12/27 06:24:37;;;;;;;13.30;1.77;;;4.60;99.90;;;;;;5018635;28;20037;-70
2023/12/27 06:27:06;;;;;;;16.30;2.00;;;4.60;99.90;;;;;;5017290;28;20039;-70
2023/12/27 06:29:38;;;;;;;4.03;1.38;;;4.60;99.90;;;;;;5017145;28;20032;-70
2023/12/27 06:32:05;;;;;;;13.00;1.75;;;4.70;99.90;;;;;;5020194;28;20078;-70
2023/12/27 06:34:30;;;;;;;14.65;2.15;;;4.70;99.90;;;;;;5018305;28;20479;-70
2023/12/27 06:36:56;;;;;;;9.18;1.85;;;4.70;99.90;;;;;;5017308;28;20033;-70
2023/12/27 06:39:24;;;;;;;7.00;1.52;;;4.70;99.90;;;;;;5019978;28;20048;-70
2023/12/27 06:41:50;;;;;;;15.05;2.40;;;4.70;99.90;;;;;;5016737;28;20164;-70
2023/12/27 06:44:16;;;;;;;6.47;1.60;;;4.70;99.90;;;;;;5017040;28;20096;-70
2023/12/27 06:46:41;;;;;;;12.35;1.75;;;4.80;99.90;;;;;;5033397;22;20066;-70
2023/12/27 06:49:07;;;;;;;11.70;1.90;;;4.70;99.90;;;;;;5036683;28;20040;-70
2023/12/27 06:51:32;;;;;;;14.07;1.67;;;4.70;99.90;;;;;;5029031;28;20036;-70
2023/12/27 06:54:00;;;;;;;9.77;1.70;;;4.70;99.90;;;;;;5035675;28;20025;-70
2023/12/27 06:56:26;;;;;;;;;;;4.70;99.90;;;;;;5034024;28;20032;-70
2023/12/27 06:58:52;;;;;;;10.77;1.65;;;4.70;99.90;;;;;;5034462;28;19908;-70
2023/12/27 07:01:17;;;;;;;7.88;1.30;;;4.70;99.90;;;;;;5034600;28;20032;-69
2023/12/27 07:03:43;;;;;;;9.98;1.75;;;4.70;99.90;;;;;;5036970;28;20040;-70
2023/12/27 07:06:08;;;;;;;7.10;1.70;;;4.70;99.90;;;;;;5026693;28;20033;-70
2023/12/27 07:08:37;;;;;;;11.18;1.92;;;4.70;99.90;;;;;;5033863;28;20478;-70
2023/12/27 07:11:02;;;;;;;;;;;4.70;99.90;;;;;;5033238;28;20069;-70
2023/12/27 07:13:28;;;;;;;16.38;1.90;;;4.70;99.90;;;;;;5033120;28;19920;-70
2023/12/27 07:15:54;;;;;;;10.45;1.95;;;4.70;99.90;;;;;;5034512;28;20069;-70
2023/12/27 07:18:19;;;;;;;11.30;1.73;;;4.70;99.90;;;;;;5047333;28;20295;-70
2023/12/27 07:20:47;;;;;;;14.38;2.25;;;4.70;99.90;;;;;;5045002;28;20291;-69
2023/12/27 07:23:13;;;;;;;9.25;1.67;;;4.70;99.90;;;;;;5061291;28;20387;-70
2023/12/27 07:25:38;;;;;;;9.00;1.42;;;4.70;99.90;;;;;;5042693;28;20043;-69
2023/12/27 07:28:04;;;;;;;13.75;1.58;;;4.70;99.90;;;;;;5042727;28;20270;-70
2023/12/27 07:30:29;;;;;;;9.60;1.85;;;4.70;99.90;;;;;;5056545;28;20064;-70
2023/12/27 07:32:59;;;;;;;11.15;1.60;;;4.70;99.90;;;;;;5054462;28;20028;-70
2023/12/27 07:35:25;;;;;;;15.57;1.70;;;4.70;99.90;;;;;;5056837;28;20032;-70
2023/12/27 07:37:51;;;;;;;14.63;2.13;;;4.80;99.90;;;;;;5054594;28;20032;-70
2023/12/27 07:40:17;;;;;;;10.98;2.10;;;4.80;99.90;;;;;;5057091;28;20514;-70
2023/12/27 07:42:43;;;;;;;6.35;1.25;;;4.80;99.90;;;;;;5055531;28;20029;-70
2023/12/27 07:45:09;;;;;;;7.15;1.90;;;4.80;99.90;;;;;;5062260;28;20043;-69
2023/12/27 07:47:35;;;;;;;9.13;1.58;;;4.90;99.90;;;;;;5057444;28;20041;-70
2023/12/27 07:50:01;;;;;;;15.45;1.60;;;4.90;99.90;;;;;;5038067;28;20135;-70
2023/12/27 07:52:29;;;;;;;7.28;1.52;;;4.90;99.90;;;;;;5058613;28;20667;-70
2023/12/27 07:54:57;;;;;;;;;;;5.00;99.90;;;;;;5058268;28;20029;-70
2023/12/27 07:57:23;;;;;;;;;;;4.90;99.90;;;;;;5057519;28;20098;-70
2023/12/27 07:59:55;;;;;;;9.10;1.52;;;4.90;99.90;;;;;;5060778;28;19908;-70
2023/12/27 08:02:20;;;;;;;10.63;2.05;;;4.90;99.90;;;;;;5059306;28;20394;-70
2023/12/27 08:04:46;;;;;;;12.63;1.73;;;4.90;99.90;;;;;;5060061;28;20024;-70
2023/12/27 08:07:11;;;;;;;7.90;2.00;;;4.90;99.90;;;;;;5057871;28;20201;-70
2023/12/27 08:09:37;;;;;;;11.48;1.92;;;5.00;99.90;;;;;;5058422;28;20042;-70
2023/12/27 08:12:03;;;;;;;10.18;1.77;;;4.90;99.90;;;;;;5059435;28;20471;-70
2023/12/27 08:14:31;;;;;;;5.85;1.88;;;4.90;99.90;;;;;;5058389;28;20360;-70
2023/12/27 08:16:56;;;;;;;;;;;4.90;99.90;;;;;;5054191;28;20028;-70
2023/12/27 08:19:22;;;;;;;12.52;1.90;;;4.90;99.90;;;;;;5059809;28;20302;-70
2023/12/27 08:21:47;;;;;;;9.73;1.55;;;5.00;99.90;;;;;;5061591;28;20031;-70
2023/12/27 08:24:13;;;;;;;6.90;1.98;;;4.90;99.90;;;;;;5054201;28;20303;-69
2023/12/27 08:26:39;;;;;;;8.20;1.90;;;5.00;99.90;;;;;;5056609;28;20034;-70
2023/12/27 08:29:09;;;;;;;11.45;2.47;;;5.00;99.90;;;;;;5061728;28;20467;-70
2023/12/27 08:31:35;;;;;;;14.05;2.70;;;5.00;99.90;;;;;;5059271;28;20025;-70
2023/12/27 08:34:02;;;;;;;11.95;2.50;;;5.00;99.90;;;;;;5063483;28;20037;-70
2023/12/27 08:36:29;;;;;;;16.15;2.90;;;5.00;99.90;;;;;;5064553;28;20055;-70
2023/12/27 08:38:57;;;;;;;9.18;2.33;;;5.00;99.90;;;;;;5064433;28;20035;-70
2023/12/27 08:41:26;;;;;;;10.77;2.78;;;5.00;99.90;;;;;;5063072;28;20024;-69
2023/12/27 08:43:54;;;;;;;8.15;2.20;;;5.10;99.90;;;;;;5046318;28;20063;-70
2023/12/27 08:46:21;;;;;;;14.45;2.70;;;5.10;99.90;;;;;;5062787;28;20483;-70
2023/12/27 08:48:46;;;;;;;11.75;2.17;;;5.10;99.90;;;;;;5065473;28;20254;-70
2023/12/27 08:51:12;;;;;;;14.55;2.88;;;5.10;99.90;;;;;;5063534;28;20554;-70
2023/12/27 08:53:38;;;;;;;8.55;2.30;;;5.10;99.90;;;;;;5065212;28;20023;-70
2023/12/27 08:56:04;;;;;;;14.73;2.72;;;5.10;99.90;;;;;;5064207;28;20029;-70
2023/12/27 08:58:35;;;;;;;8.40;2.40;;;5.20;99.90;;;;;;5060464;28;20138;-70
2023/12/27 09:01:01;;;;;;;13.23;2.50;;;5.20;99.90;;;;;;5064124;28;20517;-70
2023/12/27 09:03:27;;;;;;;8.43;2.03;;;5.20;99.90;;;;;;5040902;28;20039;-70
2023/12/27 09:05:53;;;;;;;12.38;2.00;;;5.20;99.90;;;;;;5063246;28;20020;-70
2023/12/27 09:08:23;;;;;;;11.57;2.00;;;5.20;99.90;;;;;;5062383;28;20037;-70
2023/12/27 09:10:49;;;;;;;11.80;2.15;;;5.20;99.90;;;;;;5059694;28;20099;-70
2023/12/27 09:13:15;;;;;;;11.35;2.30;;;5.30;99.90;;;;;;5060993;28;20451;-70
2023/12/27 09:15:41;;;;;;;13.65;2.53;;;5.30;99.90;;;;;;5062695;28;20057;-70
2023/12/27 09:18:09;;;;;;;8.35;1.70;;;5.40;99.90;;;;;;5058662;28;20052;-70
2023/12/27 09:20:35;;;;;;;;;;;5.40;99.90;;;;;;5062584;28;20179;-70
2023/12/27 09:23:03;;;;;;;17.40;2.75;;;5.40;99.90;;;;;;5062404;28;20366;-70
2023/12/27 09:25:29;;;;;;;17.23;2.25;;;5.40;99.90;;;;;;5056868;28;20078;-70
2023/12/27 09:27:55;;;;;;;15.38;2.78;;;5.40;99.90;;;;;;5054012;28;20029;-70
2023/12/27 09:30:20;;;;;;;9.85;2.22;;;5.40;99.90;;;;;;5056897;28;20115;-70
2023/12/27 09:32:46;;;;;;;17.60;2.20;;;5.50;99.90;;;;;;5059377;28;20063;-71
2023/12/27 09:35:12;;;;;;;11.30;1.80;;;5.50;99.90;;;;;;5058875;28;20052;-70
2023/12/27 09:37:42;;;;;;;10.98;2.45;;;5.60;99.90;;;;;;5060107;28;20453;-70
2023/12/27 09:40:08;;;;;;;13.75;1.67;;;5.60;99.90;;;;;;5063217;28;20040;-68
2023/12/27 09:42:37;;;;;;;8.73;2.05;;;5.60;99.90;;;;;;5044518;28;20479;-68
2023/12/27 09:45:06;;;;;;;10.50;2.20;;;5.60;99.90;;;;;;5057847;28;20024;-68
2023/12/27 09:47:33;;;;;;;12.07;2.20;;;5.60;99.90;;;;;;5046060;28;20028;-70
2023/12/27 09:50:01;;;;;;;12.40;2.35;;;5.70;99.90;;;;;;5067152;28;20804;-68
2023/12/27 09:52:29;;;;;;;7.38;2.30;;;5.70;99.90;;;;;;5046892;28;20036;-68
2023/12/27 09:54:54;;;;;;;17.30;2.53;;;5.80;99.90;;;;;;5066440;28;20114;-69
2023/12/27 09:57:22;;;;;;;10.07;2.22;;;5.80;99.90;;;;;;5059125;28;20032;-68
2023/12/27 09:59:51;;;;;;;8.23;2.33;;;5.90;99.90;;;;;;5061117;28;20021;-68
2023/12/27 10:02:18;;;;;;;10.77;2.80;;;5.90;99.90;;;;;;5037307;28;20112;-68
2023/12/27 10:05:08;;;;;;;6.30;1.55;;;5.90;99.90;;;;;;5060469;28;20146;-68
2023/12/27 10:07:39;;;;;;;7.93;1.70;;;5.90;99.90;;;;;;5063975;28;20108;-71
2023/12/27 10:10:08;;;;;;;13.88;2.08;;;6.00;99.90;;;;;;5060572;28;20032;-68
2023/12/27 10:12:36;;;;;;;12.48;1.80;;;6.10;99.90;;;;;;5062468;28;20401;-68
2023/12/27 10:15:02;;;;;;;;;;;6.10;99.90;;;;;;5046882;28;20031;-68
2023/12/27 10:17:31;;;;;;;21.92;2.58;;;6.10;99.90;;;;;;5039527;28;20275;-68
2023/12/27 10:19:56;;;;;;;13.70;2.63;;;6.20;99.90;;;;;;5040602;28;20025;-68
2023/12/27 10:22:22;;;;;;;9.55;2.55;;;6.20;99.90;;;;;;5040172;28;20086;-68
2023/12/27 10:24:47;;;;;;;9.40;2.00;;;6.20;99.90;;;;;;5043163;28;20040;-68
2023/12/27 10:27:16;;;;;;;12.02;2.13;;;6.30;99.90;;;;;;5020561;28;20035;-68
2023/12/27 10:29:47;;;;;;;13.25;1.70;;;6.30;99.90;;;;;;5039516;28;20115;-68
2023/12/27 10:32:15;;;;;;;12.65;2.83;;;6.40;99.90;;;;;;5038997;28;20039;-68
2023/12/27 10:34:41;;;;;;;9.40;2.25;;;6.40;99.90;;;;;;5040009;28;20101;-69
2023/12/27 10:37:11;;;;;;;10.02;2.22;;;6.40;99.90;;;;;;5042747;28;20104;-68
2023/12/27 10:39:44;;;;;;;14.48;2.10;;;6.50;99.90;;;;;;5037926;28;20039;-68
2023/12/27 10:42:14;;;;;;;13.52;2.17;;;6.50;99.90;;;;;;5054188;28;20132;-68
2023/12/27 10:44:40;;;;;;;8.93;1.90;;;6.50;99.90;;;;;;5060295;28;20032;-68
2023/12/27 10:47:11;;;;;;;12.98;2.47;;;6.50;99.90;;;;;;5056999;28;20040;-68
2023/12/27 10:49:40;;;;;;;10.80;1.90;;;6.60;99.90;;;;;;5056956;28;20457;-68
2023/12/27 10:52:08;;;;;;;8.52;1.75;;;6.60;99.90;;;;;;5059361;28;20389;-68
2023/12/27 10:54:35;;;;;;;11.98;2.00;;;6.70;99.90;;;;;;5056200;28;20025;-68
2023/12/27 10:57:02;;;;;;;9.10;2.00;;;6.70;99.90;;;;;;5059084;28;20012;-69
2023/12/27 10:59:28;;;;;;;8.63;1.60;;;6.70;99.90;;;;;;5060253;28;20438;-68
2023/12/27 11:01:55;;;;;;;9.38;1.92;;;6.80;99.90;;;;;;5061874;28;20119;-68
2023/12/27 11:04:23;;;;;;;14.65;1.85;;;6.80;99.90;;;;;;5058884;28;20724;-68
2023/12/27 11:06:54;;;;;;;15.85;2.13;;;6.90;99.90;;;;;;5056029;28;20040;-67
2023/12/27 11:09:23;;;;;;;8.43;1.73;;;6.80;99.90;;;;;;5059272;28;20043;-68
2023/12/27 11:11:50;;;;;;;7.93;1.67;;;6.80;99.90;;;;;;5059956;28;20082;-68
2023/12/27 11:14:24;;;;;;;8.07;1.20;;;6.80;99.90;;;;;;5058132;28;20021;-68
2023/12/27 11:16:52;;;;;;;12.38;1.40;;;6.90;99.90;;;;;;5065353;28;20116;-68
2023/12/27 11:19:26;;;;;;;5.32;1.50;;;6.90;99.90;;;;;;5065517;28;20020;-69
2023/12/27 11:21:52;;;;;;;5.53;1.30;;;6.90;99.90;;;;;;5063584;28;20028;-68
2023/12/27 11:24:20;;;;;;;12.07;1.60;;;6.90;99.90;;;;;;5060262;28;20024;-68
2023/12/27 11:26:57;;;;;;;;;;;6.90;99.90;;;;;;5054231;28;20522;-68
2023/12/27 11:29:25;;;;;;;13.48;2.47;;;6.90;99.90;;;;;;5055586;28;20351;-68
2023/12/27 11:31:52;;;;;;;3.53;1.52;;;7.00;99.90;;;;;;5060672;28;20037;-68
2023/12/27 11:34:18;;;;;;;10.63;1.70;;;7.00;99.90;;;;;;5056028;28;20045;-68
2023/12/27 11:36:46;;;;;;;9.18;1.60;;;7.00;99.90;;;;;;5054759;28;20509;-68
2023/12/27 11:39:19;;;;;;;11.88;1.80;;;7.00;99.90;;;;;;5055718;28;20029;-68
2023/12/27 11:41:44;;;;;;;8.90;1.75;;;7.00;99.90;;;;;;5060779;28;20032;-69
2023/12/27 11:44:13;;;;;;;10.80;1.77;;;7.10;99.90;;;;;;5060149;28;20082;-68
2023/12/27 11:46:41;;;;;;;11.57;2.25;;;7.10;99.90;;;;;;5061663;28;20058;-68
2023/12/27 11:49:17;;;;;;;15.30;2.03;;;7.10;99.90;;;;;;5062504;28;20037;-71
2023/12/27 11:51:42;;;;;;;10.35;2.17;;;7.10;99.90;;;;;;5058747;28;20092;-71
2023/12/27 11:54:08;;;;;;;11.13;2.00;;;7.10;99.90;;;;;;5060601;28;20460;-71
2023/12/27 11:56:37;;;;;;;8.82;1.45;;;7.20;99.90;;;;;;5055988;28;20727;-70
2023/12/27 11:59:07;;;;;;;10.93;2.25;;;7.20;99.90;;;;;;5061778;28;20082;-70
2023/12/27 12:01:36;;;;;;;11.57;2.10;;;7.20;99.90;;;;;;5057769;28;20036;-70
2023/12/27 12:04:14;;;;;;;12.48;2.45;;;7.20;99.90;;;;;;5057551;28;20025;-70
2023/12/27 12:07:00;;;;;;;12.43;2.33;;;7.20;99.90;;;;;;5059491;28;20159;-71
2023/12/27 12:09:46;;;;;;;9.73;2.42;;;7.20;99.90;;;;;;5053838;28;20232;-71
2023/12/27 12:12:22;;;;;;;9.13;2.00;;;7.30;99.90;;;;;;5058677;28;20162;-72
2023/12/27 12:14:55;;;;;;;13.70;2.88;;;7.30;99.90;;;;;;5062411;28;20017;-71
2023/12/27 12:17:22;;;;;;;11.73;2.85;;;7.30;99.90;;;;;;5054957;28;20128;-71
2023/12/27 12:19:51;;;;;;;11.05;2.55;;;7.30;99.90;;;;;;5056500;28;20123;-71
2023/12/27 12:22:18;;;;;;;17.63;3.00;;;7.30;99.90;;;;;;5057222;28;20399;-71
2023/12/27 12:24:44;;;;;;;9.70;2.35;;;7.30;99.90;;;;;;5054479;28;20639;-71
2023/12/27 12:27:13;;;;;;;14.77;4.00;;;7.30;99.90;;;;;;5057133;28;20545;-71
2023/12/27 12:29:40;;;;;;;8.60;2.55;;;7.30;99.90;;;;;;5059520;28;20491;-71
2023/12/27 12:32:06;;;;;;;14.50;2.92;;;7.30;99.90;;;;;;5037128;28;20039;-71
2023/12/27 12:34:34;;;;;;;13.23;3.20;;;7.40;99.90;;;;;;5035697;28;20073;-71
2023/12/27 12:37:00;;;;;;;11.27;2.50;;;7.40;99.90;;;;;;5036499;28;20032;-71
2023/12/27 12:39:27;;;;;;;8.73;2.70;;;7.40;99.90;;;;;;5019079;28;20032;-72
2023/12/27 12:41:53;;;;;;;18.08;2.58;;;7.60;99.90;;;;;;5017252;28;20560;-71
2023/12/27 12:44:19;;;;;;;14.50;2.60;;;7.50;99.90;;;;;;5040206;28;20044;-71
2023/12/27 12:46:45;;;;;;;11.45;2.95;;;7.50;99.90;;;;;;5045534;22;20418;-72
2023/12/27 12:49:14;;;;;;;6.68;1.90;;;7.50;99.90;;;;;;5051380;28;20044;-70
2023/12/27 12:51:42;;;;;;;9.05;2.22;;;7.60;99.90;;;;;;5048507;28;20611;-70
2023/12/27 12:54:07;;;;;;;8.88;2.63;;;7.60;99.90;;;;;;5049607;28;20482;-70
2023/12/27 12:56:33;;;;;;;18.08;2.55;;;7.60;99.90;;;;;;5051607;28;20029;-71